Time,TemperatureF,DewpointF,PressureIn,WindDirection,WindDirectionDegrees,WindSpeedMPH,WindSpeedGustMPH,Humidity,HourlyPrecipIn,Conditions,Clouds,dailyrainin,SolarRadiationWatts/m^2,SoftwareType,DateUTC
2013-04-15 00:02:00,34.0,33.0,-100.00,East,83,6.0,10.0,95,0.00,,,0.39,0.000000,,2013-04-15 05:02:00,
2013-04-15 00:33:00,35.0,33.0,-100.00,ESE,110,8.0,14.0,94,0.00,,,0.39,0.000000,,2013-04-15 05:33:00,
2013-04-15 00:43:00,35.0,33.0,-100.00,ESE,110,8.0,14.0,94,0.00,,,0.39,0.000000,,2013-04-15 05:43:00,
2013-04-15 00:53:00,35.0,33.0,-100.00,ESE,110,8.0,14.0,94,0.00,,,0.39,0.000000,,2013-04-15 05:53:00,
2013-04-15 01:02:00,35.0,33.0,-100.00,ESE,110,8.0,14.0,94,0.00,,,0.39,0.000000,,2013-04-15 06:02:00,
2013-04-15 01:34:00,35.0,34.0,-100.00,SSE,154,4.0,12.0,96,0.00,,,0.39,0.000000,,2013-04-15 06:34:00,
2013-04-15 01:43:00,35.0,34.0,-100.00,SSE,154,4.0,12.0,96,0.00,,,0.39,0.000000,,2013-04-15 06:43:00,
2013-04-15 01:52:00,35.0,34.0,-100.00,SSE,154,4.0,12.0,96,0.00,,,0.39,0.000000,,2013-04-15 06:52:00,
2013-04-15 02:02:00,35.0,34.0,-100.00,SSE,154,4.0,12.0,96,0.00,,,0.39,0.000000,,2013-04-15 07:02:00,
2013-04-15 02:43:00,35.0,34.0,-100.00,South,180,4.0,12.0,95,0.00,,,0.39,0.000000,,2013-04-15 07:43:00,
2013-04-15 02:54:00,35.0,34.0,-100.00,South,180,4.0,12.0,95,0.00,,,0.39,0.000000,,2013-04-15 07:54:00,
2013-04-15 03:02:00,35.0,34.0,-100.00,South,180,4.0,12.0,95,0.00,,,0.39,0.000000,,2013-04-15 08:02:00,
2013-04-15 03:34:00,35.0,34.0,-100.00,SSE,164,4.0,10.0,95,0.00,,,0.39,0.000000,,2013-04-15 08:34:00,
2013-04-15 03:43:00,35.0,34.0,-100.00,SSE,164,4.0,10.0,95,0.00,,,0.39,0.000000,,2013-04-15 08:43:00,
2013-04-15 03:52:00,35.0,34.0,-100.00,SSE,164,4.0,10.0,95,0.00,,,0.39,0.000000,,2013-04-15 08:52:00,
2013-04-15 04:02:00,35.0,34.0,-100.00,SSE,164,4.0,10.0,95,0.00,,,0.39,0.000000,,2013-04-15 09:02:00,
2013-04-15 04:33:00,34.0,32.0,-100.00,South,184,5.0,12.0,93,0.00,,,0.39,0.000000,,2013-04-15 09:33:00,
2013-04-15 04:43:00,34.0,32.0,-100.00,South,184,5.0,12.0,93,0.00,,,0.39,0.000000,,2013-04-15 09:43:00,
2013-04-15 04:53:00,34.0,32.0,-100.00,South,184,5.0,12.0,93,0.00,,,0.39,0.000000,,2013-04-15 09:53:00,
2013-04-15 05:02:00,34.0,32.0,-100.00,South,184,5.0,12.0,93,0.00,,,0.39,0.000000,,2013-04-15 10:02:00,
2013-04-15 05:33:00,33.0,28.0,-100.00,South,184,4.0,17.0,83,0.00,,,0.39,0.000000,,2013-04-15 10:33:00,
2013-04-15 05:42:00,33.0,28.0,-100.00,South,184,4.0,17.0,83,0.00,,,0.39,0.000000,,2013-04-15 10:42:00,
2013-04-15 05:53:00,33.0,28.0,-100.00,South,184,4.0,17.0,83,0.00,,,0.39,0.000000,,2013-04-15 10:53:00,
2013-04-15 06:03:00,33.0,28.0,-100.00,South,184,4.0,17.0,83,0.00,,,0.39,0.000000,,2013-04-15 11:03:00,
2013-04-15 06:33:00,33.0,27.0,-100.00,SSW,211,10.0,19.0,79,0.00,,,0.39,0.000000,,2013-04-15 11:33:00,
2013-04-15 06:43:00,33.0,27.0,-100.00,SSW,211,10.0,19.0,79,0.00,,,0.39,0.000000,,2013-04-15 11:43:00,
2013-04-15 06:54:00,33.0,27.0,-100.00,SSW,211,10.0,19.0,79,0.00,,,0.39,0.000000,,2013-04-15 11:54:00,
2013-04-15 07:04:00,33.0,27.0,-100.00,SSW,211,10.0,19.0,79,0.00,,,0.39,0.000000,,2013-04-15 12:04:00,
2013-04-15 07:34:00,32.0,24.0,-100.00,SSW,200,9.0,19.0,73,0.00,,,0.39,8.000000,,2013-04-15 12:34:00,
2013-04-15 07:43:00,32.0,24.0,-100.00,SSW,200,9.0,19.0,73,0.00,,,0.39,8.000000,,2013-04-15 12:43:00,
2013-04-15 07:53:00,32.0,24.0,-100.00,SSW,200,9.0,19.0,73,0.00,,,0.39,8.000000,,2013-04-15 12:53:00,
2013-04-15 08:04:00,32.0,24.0,-100.00,SSW,200,9.0,19.0,73,0.00,,,0.39,8.000000,,2013-04-15 13:04:00,
2013-04-15 08:34:00,33.0,25.0,-100.00,SSW,197,9.0,20.0,73,0.00,,,0.39,38.000000,,2013-04-15 13:34:00,
2013-04-15 08:43:00,33.0,25.0,-100.00,SSW,197,9.0,20.0,73,0.00,,,0.39,38.000000,,2013-04-15 13:43:00,
2013-04-15 08:54:00,33.0,25.0,-100.00,SSW,197,9.0,20.0,73,0.00,,,0.39,38.000000,,2013-04-15 13:54:00,
2013-04-15 09:05:00,33.0,25.0,-100.00,SSW,197,9.0,20.0,73,0.00,,,0.39,38.000000,,2013-04-15 14:05:00,
2013-04-15 09:34:00,34.0,26.0,-100.00,SSW,198,9.0,19.0,71,0.00,,,0.39,74.000000,,2013-04-15 14:34:00,
2013-04-15 09:44:00,34.0,26.0,-100.00,SSW,198,9.0,19.0,71,0.00,,,0.39,74.000000,,2013-04-15 14:44:00,
2013-04-15 09:55:00,34.0,26.0,-100.00,SSW,198,9.0,19.0,71,0.00,,,0.39,74.000000,,2013-04-15 14:55:00,
2013-04-15 10:03:00,34.0,26.0,-100.00,SSW,198,9.0,19.0,71,0.00,,,0.39,74.000000,,2013-04-15 15:03:00,
2013-04-15 10:37:00,34.0,26.0,-100.00,SSW,192,8.0,19.0,72,0.00,,,0.39,99.000000,,2013-04-15 15:37:00,
2013-04-15 10:45:00,34.0,26.0,-100.00,SSW,192,8.0,19.0,72,0.00,,,0.39,99.000000,,2013-04-15 15:45:00,
2013-04-15 10:55:00,34.0,26.0,-100.00,SSW,192,8.0,19.0,72,0.00,,,0.39,99.000000,,2013-04-15 15:55:00,
2013-04-15 11:04:00,34.0,26.0,-100.00,SSW,192,8.0,19.0,72,0.00,,,0.39,99.000000,,2013-04-15 16:04:00,
2013-04-15 11:34:00,36.0,27.0,-100.00,SSW,203,10.0,22.0,70,0.00,,,0.39,159.000000,,2013-04-15 16:34:00,
2013-04-15 11:44:00,36.0,27.0,-100.00,SSW,203,10.0,22.0,70,0.00,,,0.39,159.000000,,2013-04-15 16:44:00,
2013-04-15 11:54:00,36.0,27.0,-100.00,SSW,203,10.0,22.0,70,0.00,,,0.39,159.000000,,2013-04-15 16:54:00,
2013-04-15 12:03:00,36.0,27.0,-100.00,SSW,203,10.0,22.0,70,0.00,,,0.39,159.000000,,2013-04-15 17:03:00,
2013-04-15 12:33:00,37.0,27.0,-100.00,SSW,209,12.0,22.0,68,0.00,,,0.39,177.000000,,2013-04-15 17:33:00,
2013-04-15 12:43:00,37.0,27.0,-100.00,SSW,209,12.0,22.0,68,0.00,,,0.39,177.000000,,2013-04-15 17:43:00,
2013-04-15 12:52:00,37.0,27.0,-100.00,SSW,209,12.0,22.0,68,0.00,,,0.39,177.000000,,2013-04-15 17:52:00,
2013-04-15 13:03:00,37.0,27.0,-100.00,SSW,209,12.0,22.0,68,0.00,,,0.39,177.000000,,2013-04-15 18:03:00,
2013-04-15 13:33:00,37.0,27.0,-100.00,SW,215,11.0,20.0,68,0.00,,,0.39,124.000000,,2013-04-15 18:33:00,
2013-04-15 13:42:00,37.0,27.0,-100.00,SW,215,11.0,20.0,68,0.00,,,0.39,124.000000,,2013-04-15 18:42:00,
2013-04-15 13:52:00,37.0,27.0,-100.00,SW,215,11.0,20.0,68,0.00,,,0.39,124.000000,,2013-04-15 18:52:00,
2013-04-15 14:02:00,37.0,27.0,-100.00,SW,215,11.0,20.0,68,0.00,,,0.39,124.000000,,2013-04-15 19:02:00,
2013-04-15 14:39:00,41.0,28.0,-100.00,SW,219,14.0,26.0,60,0.00,,,0.38,393.000000,,2013-04-15 19:39:00,
2013-04-15 14:58:00,41.0,28.0,-100.00,SW,219,14.0,26.0,60,0.00,,,0.38,393.000000,,2013-04-15 19:58:00,
2013-04-15 15:02:00,41.0,28.0,-100.00,SW,219,14.0,26.0,60,0.00,,,0.38,393.000000,,2013-04-15 20:02:00,
2013-04-15 15:32:00,39.0,27.0,-100.00,SW,229,14.0,27.0,62,0.00,,,0.34,309.000000,,2013-04-15 20:32:00,
2013-04-15 15:42:00,39.0,27.0,-100.00,SW,229,14.0,27.0,62,0.00,,,0.34,309.000000,,2013-04-15 20:42:00,
2013-04-15 15:52:00,39.0,27.0,-100.00,SW,229,14.0,27.0,62,0.00,,,0.34,309.000000,,2013-04-15 20:52:00,
2013-04-15 16:02:00,39.0,27.0,-100.00,SW,229,14.0,27.0,62,0.00,,,0.34,309.000000,,2013-04-15 21:02:00,
2013-04-15 16:33:00,39.0,27.0,-100.00,SW,232,10.0,22.0,63,0.00,,,0.30,178.000000,,2013-04-15 21:33:00,
2013-04-15 16:43:00,39.0,27.0,-100.00,SW,232,10.0,22.0,63,0.00,,,0.30,178.000000,,2013-04-15 21:43:00,
2013-04-15 16:53:00,39.0,27.0,-100.00,SW,232,10.0,22.0,63,0.00,,,0.30,178.000000,,2013-04-15 21:53:00,
2013-04-15 17:02:00,39.0,27.0,-100.00,SW,232,10.0,22.0,63,0.00,,,0.30,178.000000,,2013-04-15 22:02:00,
2013-04-15 17:33:00,39.0,27.0,-100.00,WSW,242,13.0,24.0,63,0.00,,,0.26,136.000000,,2013-04-15 22:33:00,
2013-04-15 17:42:00,39.0,27.0,-100.00,WSW,242,13.0,24.0,63,0.00,,,0.26,136.000000,,2013-04-15 22:42:00,
2013-04-15 17:52:00,39.0,27.0,-100.00,WSW,242,13.0,24.0,63,0.00,,,0.26,136.000000,,2013-04-15 22:52:00,
2013-04-15 18:02:00,39.0,27.0,-100.00,WSW,242,13.0,24.0,63,0.00,,,0.26,136.000000,,2013-04-15 23:02:00,
2013-04-15 18:32:00,38.0,26.0,-100.00,WSW,243,9.0,22.0,62,0.00,,,0.20,101.000000,,2013-04-15 23:32:00,
2013-04-15 18:42:00,38.0,26.0,-100.00,WSW,243,9.0,22.0,62,0.00,,,0.20,101.000000,,2013-04-15 23:42:00,
2013-04-15 18:52:00,38.0,26.0,-100.00,WSW,243,9.0,22.0,62,0.00,,,0.20,101.000000,,2013-04-15 23:52:00,
2013-04-15 19:02:00,38.0,26.0,-100.00,WSW,243,9.0,22.0,62,0.00,,,0.20,101.000000,,2013-04-16 00:02:00,
2013-04-15 20:32:00,36.0,26.0,-100.00,WSW,243,8.0,20.0,68,-99.99,,,0.04,8.000000,,2013-04-16 01:32:00,
2013-04-15 20:42:00,36.0,26.0,-100.00,WSW,243,8.0,20.0,68,-99.99,,,0.04,8.000000,,2013-04-16 01:42:00,
2013-04-15 20:52:00,36.0,26.0,-100.00,WSW,243,8.0,20.0,68,-99.99,,,0.04,8.000000,,2013-04-16 01:52:00,
2013-04-15 21:02:00,36.0,26.0,-100.00,WSW,243,8.0,20.0,68,-99.99,,,0.04,8.000000,,2013-04-16 02:02:00,
2013-04-15 21:32:00,36.0,28.0,-100.00,WSW,239,8.0,15.0,71,0.00,,,0.00,0.000000,,2013-04-16 02:32:00,
2013-04-15 21:42:00,36.0,28.0,-100.00,WSW,239,8.0,15.0,71,0.00,,,0.00,0.000000,,2013-04-16 02:42:00,
2013-04-15 21:52:00,36.0,28.0,-100.00,WSW,239,8.0,15.0,71,0.00,,,0.00,0.000000,,2013-04-16 02:52:00,
2013-04-15 22:02:00,36.0,28.0,-100.00,WSW,239,8.0,15.0,71,0.00,,,0.00,0.000000,,2013-04-16 03:02:00,
2013-04-15 22:33:00,36.0,29.0,-100.00,WSW,250,6.0,15.0,74,0.00,,,0.00,0.000000,,2013-04-16 03:33:00,
2013-04-15 22:43:00,36.0,29.0,-100.00,WSW,250,6.0,15.0,74,0.00,,,0.00,0.000000,,2013-04-16 03:43:00,
2013-04-15 22:53:00,36.0,29.0,-100.00,WSW,250,6.0,15.0,74,0.00,,,0.00,0.000000,,2013-04-16 03:53:00,
2013-04-15 23:03:00,36.0,29.0,-100.00,WSW,250,6.0,15.0,74,0.00,,,0.00,0.000000,,2013-04-16 04:03:00,
2013-04-15 23:33:00,36.0,29.0,-100.00,WSW,242,7.0,12.0,75,0.00,,,0.00,0.000000,,2013-04-16 04:33:00,
2013-04-15 23:42:00,36.0,29.0,-100.00,WSW,242,7.0,12.0,75,0.00,,,0.00,0.000000,,2013-04-16 04:42:00,
2013-04-15 23:53:00,36.0,29.0,-100.00,WSW,242,7.0,12.0,75,0.00,,,0.00,0.000000,,2013-04-16 04:53:00,